Captain Cook, HI (96704)

1:00 PM HST on February 07, 2016 (GMT -1000)
Captain Cook | | Change Station
CLOSE
Current Station
Personal Weather Station
Location: Captain Cook, HI
Elevation: 915 ft
Nearby Weather Stations

Elev 915 ft 19.31 °N, 155.88 °W | Updated 37 seconds ago

Scattered Clouds
Scattered Clouds
71.3 °F
Feels Like 74 °F
N
4.0
Wind Variable Wind from ESE
Gusts 14.0 mph

Today
High -- | Low -- °F
--% Chance of Precip.
Yesterday
High -- | Low -- °F
Precip. -- in
Pressure 29.93 in
Visibility 10.0 miles
Clouds Scattered Clouds 5000 ft
Heat Index 74 °F
Dew Point 62 °F
Humidity 72%
Rainfall 0.00 in
Snow Depth Not available.
6:56 AM 6:19 PM
Waning Crescent, 1% visible
METAR PHKO 072253Z 35019G28KT 10SM SCT050 26/17 A2992 RMK AO2 PK WND 01030/2234 SLP133 T02610167
Pressure 29.93 in
Visibility 10.0 miles
Clouds Scattered Clouds 5000 ft
Heat Index 74 °F
Dew Point 62 °F
Humidity 72%
Rainfall 0.00 in
Snow Depth Not available.
6:56 AM 6:19 PM
Waning Crescent, 1% visible
METAR PHKO 072253Z 35019G28KT 10SM SCT050 26/17 A2992 RMK AO2 PK WND 01030/2234 SLP133 T02610167

10-Day Weather Forecast

Almanac

Astronomy

Feb. 07, 2016 Rise Set
Actual Time
Civil Twilight
Nautical Twilight
Astronomical Twilight
Moon
Length of Visible Light
Length of Day
Tomorrow will be .
, % of the Moon is Illuminated

Today's Extremes

State Highs State Lows

Community

WunderPhotos

Upload Photos

1,891,323 photos uploaded!

WunderBlog® & News

Nearby

Air Quality

  Air Quality AQ Index Pollutant
Not available.

Snow Depth

Station Depth Elevation

Earthquake Activity

City Distance Mag. Time & Date
Minimum magnitude displayed is 2.5.

Coastal Water Temperatures

Place Temperature

Stations

Nearby Weather Stations

Station Location Temp. Windchill Dew Point Humidity Wind Precip. Elev Updated Type
                   

Watches & Warnings

There are currently no watches in effect.